sensor_id;sensor_type;location;lat;lon;timestamp;P1;durP1;ratioP1;P2;durP2;ratioP2
11522;SDS011;70090;43.208;27.904;2023-06-26T00:00:07;13.30;;;12.00;;
11522;SDS011;70090;43.208;27.904;2023-06-26T00:02:34;15.77;;;12.33;;
11522;SDS011;70090;43.208;27.904;2023-06-26T00:05:01;13.57;;;12.17;;
11522;SDS011;70090;43.208;27.904;2023-06-26T00:07:28;14.73;;;12.67;;
11522;SDS011;70090;43.208;27.904;2023-06-26T00:09:56;15.87;;;11.87;;
11522;SDS011;70090;43.208;27.904;2023-06-26T00:12:23;17.63;;;12.63;;
11522;SDS011;70090;43.208;27.904;2023-06-26T00:14:50;15.37;;;13.80;;
11522;SDS011;70090;43.208;27.904;2023-06-26T00:17:18;15.33;;;13.10;;
11522;SDS011;70090;43.208;27.904;2023-06-26T00:19:45;17.93;;;12.93;;
11522;SDS011;70090;43.208;27.904;2023-06-26T00:22:12;14.37;;;12.97;;
11522;SDS011;70090;43.208;27.904;2023-06-26T00:24:39;14.70;;;13.23;;
11522;SDS011;70090;43.208;27.904;2023-06-26T00:27:06;14.37;;;12.93;;
11522;SDS011;70090;43.208;27.904;2023-06-26T00:29:33;14.77;;;13.20;;
11522;SDS011;70090;43.208;27.904;2023-06-26T00:32:00;14.87;;;13.37;;
11522;SDS011;70090;43.208;27.904;2023-06-26T00:34:28;16.20;;;13.37;;
11522;SDS011;70090;43.208;27.904;2023-06-26T00:36:55;19.30;;;14.23;;
11522;SDS011;70090;43.208;27.904;2023-06-26T00:39:22;16.57;;;14.33;;
11522;SDS011;70090;43.208;27.904;2023-06-26T00:41:51;15.07;;;13.50;;
11522;SDS011;70090;43.208;27.904;2023-06-26T00:44:19;17.00;;;14.43;;
11522;SDS011;70090;43.208;27.904;2023-06-26T00:46:45;15.37;;;13.87;;
11522;SDS011;70090;43.208;27.904;2023-06-26T00:49:12;18.00;;;14.60;;
11522;SDS011;70090;43.208;27.904;2023-06-26T00:51:41;15.67;;;13.97;;
11522;SDS011;70090;43.208;27.904;2023-06-26T00:54:09;14.60;;;13.07;;
11522;SDS011;70090;43.208;27.904;2023-06-26T00:56:36;15.70;;;13.97;;
11522;SDS011;70090;43.208;27.904;2023-06-26T00:59:04;16.37;;;14.37;;
11522;SDS011;70090;43.208;27.904;2023-06-26T01:01:30;15.97;;;14.07;;
11522;SDS011;70090;43.208;27.904;2023-06-26T01:03:57;16.67;;;14.23;;
11522;SDS011;70090;43.208;27.904;2023-06-26T01:06:25;19.63;;;13.80;;
11522;SDS011;70090;43.208;27.904;2023-06-26T01:08:58;16.93;;;14.73;;
11522;SDS011;70090;43.208;27.904;2023-06-26T01:11:26;14.37;;;12.50;;
11522;SDS011;70090;43.208;27.904;2023-06-26T01:13:53;16.77;;;13.10;;
11522;SDS011;70090;43.208;27.904;2023-06-26T01:16:22;17.23;;;13.00;;
11522;SDS011;70090;43.208;27.904;2023-06-26T01:18:50;20.20;;;12.90;;
11522;SDS011;70090;43.208;27.904;2023-06-26T01:21:18;14.67;;;12.10;;
11522;SDS011;70090;43.208;27.904;2023-06-26T01:23:52;17.53;;;12.87;;
11522;SDS011;70090;43.208;27.904;2023-06-26T01:26:31;17.17;;;12.53;;
11522;SDS011;70090;43.208;27.904;2023-06-26T01:29:01;15.83;;;12.20;;
11522;SDS011;70090;43.208;27.904;2023-06-26T01:31:31;15.90;;;12.37;;
11522;SDS011;70090;43.208;27.904;2023-06-26T01:33:59;15.50;;;12.23;;
11522;SDS011;70090;43.208;27.904;2023-06-26T01:36:27;15.03;;;12.00;;
11522;SDS011;70090;43.208;27.904;2023-06-26T01:38:54;16.10;;;13.33;;
11522;SDS011;70090;43.208;27.904;2023-06-26T01:41:21;16.50;;;13.37;;
11522;SDS011;70090;43.208;27.904;2023-06-26T01:43:57;16.43;;;12.87;;
11522;SDS011;70090;43.208;27.904;2023-06-26T01:46:36;14.00;;;11.17;;
11522;SDS011;70090;43.208;27.904;2023-06-26T01:49:07;16.40;;;10.63;;
11522;SDS011;70090;43.208;27.904;2023-06-26T01:51:39;13.67;;;11.07;;
11522;SDS011;70090;43.208;27.904;2023-06-26T01:54:10;15.07;;;10.47;;
11522;SDS011;70090;43.208;27.904;2023-06-26T01:56:40;13.17;;;10.73;;
11522;SDS011;70090;43.208;27.904;2023-06-26T01:59:10;16.87;;;10.40;;
11522;SDS011;70090;43.208;27.904;2023-06-26T02:01:40;14.93;;;11.00;;
11522;SDS011;70090;43.208;27.904;2023-06-26T02:04:08;13.87;;;10.20;;
11522;SDS011;70090;43.208;27.904;2023-06-26T02:06:35;13.33;;;11.17;;
11522;SDS011;70090;43.208;27.904;2023-06-26T02:09:02;16.67;;;11.00;;
11522;SDS011;70090;43.208;27.904;2023-06-26T02:11:29;15.00;;;10.63;;
11522;SDS011;70090;43.208;27.904;2023-06-26T02:13:56;12.40;;;10.77;;
11522;SDS011;70090;43.208;27.904;2023-06-26T02:16:24;14.77;;;10.90;;
11522;SDS011;70090;43.208;27.904;2023-06-26T02:18:51;15.20;;;10.63;;
11522;SDS011;70090;43.208;27.904;2023-06-26T02:21:17;15.00;;;11.07;;
11522;SDS011;70090;43.208;27.904;2023-06-26T02:23:44;15.90;;;11.37;;
11522;SDS011;70090;43.208;27.904;2023-06-26T02:26:11;12.80;;;11.27;;
11522;SDS011;70090;43.208;27.904;2023-06-26T02:28:38;14.20;;;11.17;;
11522;SDS011;70090;43.208;27.904;2023-06-26T02:31:05;14.80;;;12.13;;
11522;SDS011;70090;43.208;27.904;2023-06-26T02:33:33;16.23;;;12.47;;
11522;SDS011;70090;43.208;27.904;2023-06-26T02:36:00;17.00;;;12.40;;
11522;SDS011;70090;43.208;27.904;2023-06-26T02:38:27;17.33;;;12.40;;
11522;SDS011;70090;43.208;27.904;2023-06-26T02:40:53;16.60;;;12.60;;
11522;SDS011;70090;43.208;27.904;2023-06-26T02:43:20;17.60;;;13.00;;
11522;SDS011;70090;43.208;27.904;2023-06-26T02:45:47;21.97;;;12.87;;
11522;SDS011;70090;43.208;27.904;2023-06-26T02:48:14;14.93;;;12.67;;
11522;SDS011;70090;43.208;27.904;2023-06-26T02:50:42;18.80;;;13.50;;
11522;SDS011;70090;43.208;27.904;2023-06-26T02:53:11;16.17;;;12.83;;
11522;SDS011;70090;43.208;27.904;2023-06-26T02:55:38;19.73;;;13.47;;
11522;SDS011;70090;43.208;27.904;2023-06-26T02:58:05;17.43;;;13.53;;
11522;SDS011;70090;43.208;27.904;2023-06-26T03:00:32;15.33;;;13.27;;
11522;SDS011;70090;43.208;27.904;2023-06-26T03:02:58;19.13;;;14.50;;
11522;SDS011;70090;43.208;27.904;2023-06-26T03:05:26;17.07;;;13.80;;
11522;SDS011;70090;43.208;27.904;2023-06-26T03:07:54;18.67;;;14.13;;
11522;SDS011;70090;43.208;27.904;2023-06-26T03:10:21;18.93;;;14.03;;
11522;SDS011;70090;43.208;27.904;2023-06-26T03:12:48;18.83;;;13.97;;
11522;SDS011;70090;43.208;27.904;2023-06-26T03:15:15;19.63;;;14.30;;
11522;SDS011;70090;43.208;27.904;2023-06-26T03:17:41;17.63;;;13.93;;
11522;SDS011;70090;43.208;27.904;2023-06-26T03:20:08;19.63;;;13.83;;
11522;SDS011;70090;43.208;27.904;2023-06-26T03:22:35;17.37;;;13.90;;
11522;SDS011;70090;43.208;27.904;2023-06-26T03:25:04;17.57;;;14.00;;
11522;SDS011;70090;43.208;27.904;2023-06-26T03:27:31;18.77;;;14.20;;
11522;SDS011;70090;43.208;27.904;2023-06-26T03:29:58;21.63;;;14.33;;
11522;SDS011;70090;43.208;27.904;2023-06-26T03:32:25;18.83;;;15.70;;
11522;SDS011;70090;43.208;27.904;2023-06-26T03:34:52;20.30;;;14.83;;
11522;SDS011;70090;43.208;27.904;2023-06-26T03:37:19;19.90;;;14.73;;
11522;SDS011;70090;43.208;27.904;2023-06-26T03:39:46;19.40;;;16.30;;
11522;SDS011;70090;43.208;27.904;2023-06-26T03:42:14;19.80;;;15.60;;
11522;SDS011;70090;43.208;27.904;2023-06-26T03:44:41;16.67;;;14.60;;
11522;SDS011;70090;43.208;27.904;2023-06-26T03:47:08;21.30;;;15.07;;
11522;SDS011;70090;43.208;27.904;2023-06-26T03:49:34;19.57;;;14.37;;
11522;SDS011;70090;43.208;27.904;2023-06-26T03:52:01;19.37;;;14.83;;
11522;SDS011;70090;43.208;27.904;2023-06-26T03:54:28;20.80;;;14.80;;
11522;SDS011;70090;43.208;27.904;2023-06-26T03:56:55;19.40;;;14.67;;
11522;SDS011;70090;43.208;27.904;2023-06-26T03:59:23;19.57;;;15.50;;
11522;SDS011;70090;43.208;27.904;2023-06-26T04:01:50;19.10;;;14.83;;
11522;SDS011;70090;43.208;27.904;2023-06-26T04:04:17;15.17;;;13.60;;
11522;SDS011;70090;43.208;27.904;2023-06-26T04:06:44;19.03;;;16.37;;
11522;SDS011;70090;43.208;27.904;2023-06-26T04:09:11;16.07;;;13.33;;
11522;SDS011;70090;43.208;27.904;2023-06-26T04:11:38;16.97;;;14.10;;
11522;SDS011;70090;43.208;27.904;2023-06-26T04:14:05;15.77;;;14.10;;
11522;SDS011;70090;43.208;27.904;2023-06-26T04:16:33;17.97;;;14.47;;
11522;SDS011;70090;43.208;27.904;2023-06-26T04:19:00;15.00;;;13.40;;
11522;SDS011;70090;43.208;27.904;2023-06-26T04:21:27;17.40;;;13.77;;
11522;SDS011;70090;43.208;27.904;2023-06-26T04:23:54;15.93;;;13.40;;
11522;SDS011;70090;43.208;27.904;2023-06-26T04:26:21;19.77;;;14.20;;
11522;SDS011;70090;43.208;27.904;2023-06-26T04:28:48;18.77;;;14.27;;
11522;SDS011;70090;43.208;27.904;2023-06-26T04:31:15;18.27;;;14.40;;
11522;SDS011;70090;43.208;27.904;2023-06-26T04:33:43;20.70;;;14.20;;
11522;SDS011;70090;43.208;27.904;2023-06-26T04:36:15;16.70;;;13.73;;
11522;SDS011;70090;43.208;27.904;2023-06-26T04:38:43;18.70;;;14.40;;
11522;SDS011;70090;43.208;27.904;2023-06-26T04:41:10;18.83;;;13.60;;
11522;SDS011;70090;43.208;27.904;2023-06-26T04:43:36;19.00;;;13.33;;
11522;SDS011;70090;43.208;27.904;2023-06-26T04:46:05;17.87;;;15.60;;
11522;SDS011;70090;43.208;27.904;2023-06-26T04:48:32;15.80;;;13.30;;
11522;SDS011;70090;43.208;27.904;2023-06-26T04:51:00;14.57;;;13.13;;
11522;SDS011;70090;43.208;27.904;2023-06-26T04:53:27;17.33;;;13.43;;
11522;SDS011;70090;43.208;27.904;2023-06-26T04:55:54;15.37;;;13.03;;
11522;SDS011;70090;43.208;27.904;2023-06-26T04:58:21;15.47;;;13.30;;
11522;SDS011;70090;43.208;27.904;2023-06-26T05:00:48;15.47;;;13.63;;
11522;SDS011;70090;43.208;27.904;2023-06-26T05:03:15;16.80;;;13.77;;
11522;SDS011;70090;43.208;27.904;2023-06-26T05:05:43;13.60;;;12.20;;
11522;SDS011;70090;43.208;27.904;2023-06-26T05:08:15;15.27;;;12.90;;
11522;SDS011;70090;43.208;27.904;2023-06-26T05:10:43;12.07;;;10.87;;
11522;SDS011;70090;43.208;27.904;2023-06-26T05:13:11;13.20;;;9.90;;
11522;SDS011;70090;43.208;27.904;2023-06-26T05:15:40;10.57;;;9.60;;
11522;SDS011;70090;43.208;27.904;2023-06-26T05:18:07;11.80;;;10.00;;
11522;SDS011;70090;43.208;27.904;2023-06-26T05:20:34;11.23;;;9.20;;
11522;SDS011;70090;43.208;27.904;2023-06-26T05:23:02;12.47;;;9.03;;
11522;SDS011;70090;43.208;27.904;2023-06-26T05:25:30;9.00;;;8.10;;
11522;SDS011;70090;43.208;27.904;2023-06-26T05:27:59;8.17;;;7.33;;
11522;SDS011;70090;43.208;27.904;2023-06-26T05:30:27;9.40;;;7.60;;
11522;SDS011;70090;43.208;27.904;2023-06-26T05:32:56;10.63;;;7.40;;
11522;SDS011;70090;43.208;27.904;2023-06-26T05:35:26;8.83;;;7.00;;
11522;SDS011;70090;43.208;27.904;2023-06-26T05:37:55;9.27;;;7.13;;
11522;SDS011;70090;43.208;27.904;2023-06-26T05:40:23;7.47;;;6.70;;
11522;SDS011;70090;43.208;27.904;2023-06-26T05:42:52;7.53;;;6.87;;
11522;SDS011;70090;43.208;27.904;2023-06-26T05:45:19;8.17;;;7.00;;
11522;SDS011;70090;43.208;27.904;2023-06-26T05:47:46;9.33;;;7.47;;
11522;SDS011;70090;43.208;27.904;2023-06-26T05:50:17;8.33;;;7.47;;
11522;SDS011;70090;43.208;27.904;2023-06-26T05:52:45;9.83;;;8.13;;
11522;SDS011;70090;43.208;27.904;2023-06-26T05:55:13;9.63;;;8.47;;
11522;SDS011;70090;43.208;27.904;2023-06-26T05:57:40;9.70;;;8.00;;
11522;SDS011;70090;43.208;27.904;2023-06-26T06:00:09;9.50;;;7.83;;
11522;SDS011;70090;43.208;27.904;2023-06-26T06:02:37;10.00;;;8.57;;
11522;SDS011;70090;43.208;27.904;2023-06-26T06:05:04;10.20;;;8.00;;
11522;SDS011;70090;43.208;27.904;2023-06-26T06:07:32;10.77;;;8.50;;
11522;SDS011;70090;43.208;27.904;2023-06-26T06:09:59;10.73;;;9.27;;
11522;SDS011;70090;43.208;27.904;2023-06-26T06:12:26;11.00;;;9.20;;
11522;SDS011;70090;43.208;27.904;2023-06-26T06:14:53;10.90;;;9.63;;
11522;SDS011;70090;43.208;27.904;2023-06-26T06:17:22;11.00;;;10.00;;
11522;SDS011;70090;43.208;27.904;2023-06-26T06:19:48;11.97;;;9.77;;
11522;SDS011;70090;43.208;27.904;2023-06-26T06:22:15;13.17;;;10.73;;
11522;SDS011;70090;43.208;27.904;2023-06-26T06:24:42;11.57;;;10.37;;
11522;SDS011;70090;43.208;27.904;2023-06-26T06:27:10;12.07;;;10.17;;
11522;SDS011;70090;43.208;27.904;2023-06-26T06:29:38;11.13;;;9.93;;
11522;SDS011;70090;43.208;27.904;2023-06-26T06:32:05;14.57;;;10.33;;
11522;SDS011;70090;43.208;27.904;2023-06-26T06:34:34;12.80;;;11.00;;
11522;SDS011;70090;43.208;27.904;2023-06-26T06:37:01;12.53;;;10.57;;
11522;SDS011;70090;43.208;27.904;2023-06-26T06:39:29;12.77;;;10.63;;
11522;SDS011;70090;43.208;27.904;2023-06-26T06:41:56;13.67;;;11.60;;
11522;SDS011;70090;43.208;27.904;2023-06-26T06:44:22;12.90;;;10.97;;
11522;SDS011;70090;43.208;27.904;2023-06-26T06:46:49;13.37;;;11.90;;
11522;SDS011;70090;43.208;27.904;2023-06-26T06:49:16;12.90;;;11.47;;
11522;SDS011;70090;43.208;27.904;2023-06-26T06:51:44;13.03;;;11.43;;
11522;SDS011;70090;43.208;27.904;2023-06-26T06:54:11;12.83;;;11.57;;
11522;SDS011;70090;43.208;27.904;2023-06-26T06:56:38;14.47;;;12.57;;
11522;SDS011;70090;43.208;27.904;2023-06-26T06:59:05;13.20;;;11.87;;
11522;SDS011;70090;43.208;27.904;2023-06-26T07:01:32;13.23;;;11.50;;
11522;SDS011;70090;43.208;27.904;2023-06-26T07:03:59;12.30;;;10.93;;
11522;SDS011;70090;43.208;27.904;2023-06-26T07:06:26;14.57;;;11.10;;
11522;SDS011;70090;43.208;27.904;2023-06-26T07:08:54;11.80;;;10.60;;
11522;SDS011;70090;43.208;27.904;2023-06-26T07:11:21;15.43;;;10.73;;
11522;SDS011;70090;43.208;27.904;2023-06-26T07:13:48;12.10;;;10.90;;
11522;SDS011;70090;43.208;27.904;2023-06-26T07:16:14;11.63;;;10.53;;
11522;SDS011;70090;43.208;27.904;2023-06-26T07:18:41;12.43;;;11.07;;
11522;SDS011;70090;43.208;27.904;2023-06-26T07:21:08;13.00;;;11.60;;
11522;SDS011;70090;43.208;27.904;2023-06-26T07:23:35;12.30;;;11.00;;
11522;SDS011;70090;43.208;27.904;2023-06-26T07:26:03;14.10;;;11.73;;
11522;SDS011;70090;43.208;27.904;2023-06-26T07:28:30;12.63;;;11.47;;
11522;SDS011;70090;43.208;27.904;2023-06-26T07:30:57;14.23;;;11.47;;
11522;SDS011;70090;43.208;27.904;2023-06-26T07:33:24;12.17;;;10.93;;
11522;SDS011;70090;43.208;27.904;2023-06-26T07:35:50;12.53;;;11.30;;
11522;SDS011;70090;43.208;27.904;2023-06-26T07:38:17;12.40;;;11.10;;
11522;SDS011;70090;43.208;27.904;2023-06-26T07:40:44;15.93;;;11.93;;
11522;SDS011;70090;43.208;27.904;2023-06-26T07:43:12;13.47;;;11.33;;
11522;SDS011;70090;43.208;27.904;2023-06-26T07:45:39;13.53;;;11.17;;
11522;SDS011;70090;43.208;27.904;2023-06-26T07:48:06;12.97;;;11.73;;
11522;SDS011;70090;43.208;27.904;2023-06-26T07:50:34;11.47;;;10.00;;
11522;SDS011;70090;43.208;27.904;2023-06-26T07:53:01;11.93;;;10.73;;
11522;SDS011;70090;43.208;27.904;2023-06-26T07:55:27;14.97;;;11.37;;
11522;SDS011;70090;43.208;27.904;2023-06-26T07:57:54;11.83;;;9.57;;
11522;SDS011;70090;43.208;27.904;2023-06-26T08:00:23;11.23;;;9.73;;
11522;SDS011;70090;43.208;27.904;2023-06-26T08:02:50;10.87;;;9.77;;
11522;SDS011;70090;43.208;27.904;2023-06-26T08:05:17;10.97;;;9.60;;
11522;SDS011;70090;43.208;27.904;2023-06-26T08:07:43;11.73;;;9.23;;
11522;SDS011;70090;43.208;27.904;2023-06-26T08:10:10;12.30;;;9.50;;
11522;SDS011;70090;43.208;27.904;2023-06-26T08:12:37;11.00;;;9.80;;
11522;SDS011;70090;43.208;27.904;2023-06-26T08:15:06;10.13;;;9.00;;
11522;SDS011;70090;43.208;27.904;2023-06-26T08:17:35;10.97;;;9.77;;
11522;SDS011;70090;43.208;27.904;2023-06-26T08:20:02;15.07;;;10.60;;
11522;SDS011;70090;43.208;27.904;2023-06-26T08:22:30;11.47;;;9.10;;
11522;SDS011;70090;43.208;27.904;2023-06-26T08:24:57;11.20;;;8.90;;
11522;SDS011;70090;43.208;27.904;2023-06-26T08:27:24;9.03;;;8.13;;
11522;SDS011;70090;43.208;27.904;2023-06-26T08:29:51;10.13;;;9.13;;
11522;SDS011;70090;43.208;27.904;2023-06-26T08:32:18;9.83;;;8.83;;
11522;SDS011;70090;43.208;27.904;2023-06-26T08:34:46;11.50;;;10.30;;
11522;SDS011;70090;43.208;27.904;2023-06-26T08:37:13;10.30;;;9.20;;
11522;SDS011;70090;43.208;27.904;2023-06-26T08:39:40;8.80;;;8.10;;
11522;SDS011;70090;43.208;27.904;2023-06-26T08:42:07;10.40;;;9.00;;
11522;SDS011;70090;43.208;27.904;2023-06-26T08:44:34;9.60;;;8.70;;
11522;SDS011;70090;43.208;27.904;2023-06-26T08:47:01;9.43;;;8.53;;
11522;SDS011;70090;43.208;27.904;2023-06-26T08:49:29;15.07;;;9.03;;
11522;SDS011;70090;43.208;27.904;2023-06-26T08:52:06;9.97;;;8.50;;
11522;SDS011;70090;43.208;27.904;2023-06-26T08:54:40;9.37;;;8.47;;
11522;SDS011;70090;43.208;27.904;2023-06-26T08:57:12;12.40;;;9.60;;
11522;SDS011;70090;43.208;27.904;2023-06-26T08:59:42;11.40;;;8.37;;
11522;SDS011;70090;43.208;27.904;2023-06-26T09:02:09;10.33;;;7.93;;
11522;SDS011;70090;43.208;27.904;2023-06-26T09:04:37;10.60;;;9.23;;
11522;SDS011;70090;43.208;27.904;2023-06-26T09:07:06;11.17;;;8.27;;
11522;SDS011;70090;43.208;27.904;2023-06-26T09:09:34;8.97;;;7.87;;
11522;SDS011;70090;43.208;27.904;2023-06-26T09:12:01;10.03;;;9.03;;
11522;SDS011;70090;43.208;27.904;2023-06-26T09:14:28;9.47;;;8.13;;
11522;SDS011;70090;43.208;27.904;2023-06-26T09:16:56;12.00;;;7.47;;
11522;SDS011;70090;43.208;27.904;2023-06-26T09:19:22;13.43;;;10.13;;
11522;SDS011;70090;43.208;27.904;2023-06-26T09:21:50;9.83;;;8.00;;
11522;SDS011;70090;43.208;27.904;2023-06-26T09:24:18;9.10;;;8.03;;
11522;SDS011;70090;43.208;27.904;2023-06-26T09:26:46;12.37;;;9.80;;
11522;SDS011;70090;43.208;27.904;2023-06-26T09:29:13;8.63;;;7.40;;
11522;SDS011;70090;43.208;27.904;2023-06-26T09:31:43;12.70;;;9.07;;
11522;SDS011;70090;43.208;27.904;2023-06-26T09:34:10;13.03;;;8.60;;
11522;SDS011;70090;43.208;27.904;2023-06-26T09:36:37;11.20;;;8.13;;
11522;SDS011;70090;43.208;27.904;2023-06-26T09:39:07;9.10;;;7.00;;
11522;SDS011;70090;43.208;27.904;2023-06-26T09:41:37;11.80;;;8.20;;
11522;SDS011;70090;43.208;27.904;2023-06-26T09:44:05;7.97;;;6.87;;
11522;SDS011;70090;43.208;27.904;2023-06-26T09:46:32;9.27;;;7.53;;
11522;SDS011;70090;43.208;27.904;2023-06-26T09:49:03;8.23;;;7.43;;
11522;SDS011;70090;43.208;27.904;2023-06-26T09:51:31;10.17;;;7.50;;
11522;SDS011;70090;43.208;27.904;2023-06-26T09:53:59;9.90;;;8.10;;
11522;SDS011;70090;43.208;27.904;2023-06-26T09:56:26;10.43;;;8.07;;
11522;SDS011;70090;43.208;27.904;2023-06-26T09:58:57;8.93;;;7.33;;
11522;SDS011;70090;43.208;27.904;2023-06-26T10:01:24;9.83;;;7.50;;
11522;SDS011;70090;43.208;27.904;2023-06-26T10:03:51;10.67;;;8.47;;
11522;SDS011;70090;43.208;27.904;2023-06-26T10:06:22;8.80;;;7.47;;
11522;SDS011;70090;43.208;27.904;2023-06-26T10:09:00;11.00;;;7.47;;
11522;SDS011;70090;43.208;27.904;2023-06-26T10:11:30;7.40;;;6.47;;
11522;SDS011;70090;43.208;27.904;2023-06-26T10:14:03;10.20;;;7.17;;
11522;SDS011;70090;43.208;27.904;2023-06-26T10:16:33;10.27;;;6.13;;
11522;SDS011;70090;43.208;27.904;2023-06-26T10:19:04;9.53;;;6.40;;
11522;SDS011;70090;43.208;27.904;2023-06-26T10:21:32;7.83;;;6.77;;
11522;SDS011;70090;43.208;27.904;2023-06-26T10:24:01;7.10;;;6.40;;
11522;SDS011;70090;43.208;27.904;2023-06-26T10:26:31;6.87;;;6.17;;
11522;SDS011;70090;43.208;27.904;2023-06-26T10:29:03;8.07;;;6.07;;
11522;SDS011;70090;43.208;27.904;2023-06-26T10:31:32;6.63;;;6.00;;
11522;SDS011;70090;43.208;27.904;2023-06-26T10:34:00;7.87;;;6.27;;
11522;SDS011;70090;43.208;27.904;2023-06-26T10:36:28;6.60;;;6.00;;
11522;SDS011;70090;43.208;27.904;2023-06-26T10:38:57;9.07;;;6.87;;
11522;SDS011;70090;43.208;27.904;2023-06-26T10:41:30;8.67;;;6.30;;
11522;SDS011;70090;43.208;27.904;2023-06-26T10:44:08;8.30;;;5.97;;
11522;SDS011;70090;43.208;27.904;2023-06-26T10:46:48;8.90;;;6.47;;
11522;SDS011;70090;43.208;27.904;2023-06-26T10:49:17;6.33;;;4.93;;
11522;SDS011;70090;43.208;27.904;2023-06-26T10:51:47;8.37;;;5.63;;
11522;SDS011;70090;43.208;27.904;2023-06-26T10:54:15;6.07;;;5.23;;
11522;SDS011;70090;43.208;27.904;2023-06-26T10:56:44;6.40;;;4.83;;
11522;SDS011;70090;43.208;27.904;2023-06-26T10:59:14;5.43;;;4.93;;
11522;SDS011;70090;43.208;27.904;2023-06-26T11:01:43;9.17;;;7.03;;
11522;SDS011;70090;43.208;27.904;2023-06-26T11:04:11;6.43;;;4.80;;
11522;SDS011;70090;43.208;27.904;2023-06-26T11:06:40;6.50;;;5.30;;
11522;SDS011;70090;43.208;27.904;2023-06-26T11:09:09;6.90;;;5.90;;
11522;SDS011;70090;43.208;27.904;2023-06-26T11:11:56;8.87;;;6.53;;
11522;SDS011;70090;43.208;27.904;2023-06-26T11:14:31;6.40;;;5.43;;
11522;SDS011;70090;43.208;27.904;2023-06-26T11:16:58;6.33;;;4.63;;
11522;SDS011;70090;43.208;27.904;2023-06-26T11:19:28;5.30;;;4.67;;
11522;SDS011;70090;43.208;27.904;2023-06-26T11:21:58;6.10;;;4.50;;
11522;SDS011;70090;43.208;27.904;2023-06-26T11:24:28;5.90;;;4.90;;
11522;SDS011;70090;43.208;27.904;2023-06-26T11:26:59;6.60;;;5.07;;
11522;SDS011;70090;43.208;27.904;2023-06-26T11:29:27;5.50;;;4.60;;
11522;SDS011;70090;43.208;27.904;2023-06-26T11:31:59;5.60;;;4.50;;
11522;SDS011;70090;43.208;27.904;2023-06-26T11:34:30;8.67;;;5.57;;
11522;SDS011;70090;43.208;27.904;2023-06-26T11:36:58;8.63;;;5.63;;
11522;SDS011;70090;43.208;27.904;2023-06-26T11:39:28;6.53;;;5.23;;
11522;SDS011;70090;43.208;27.904;2023-06-26T11:41:55;11.77;;;5.80;;
11522;SDS011;70090;43.208;27.904;2023-06-26T11:44:22;11.10;;;6.60;;
11522;SDS011;70090;43.208;27.904;2023-06-26T11:46:51;6.27;;;4.77;;
11522;SDS011;70090;43.208;27.904;2023-06-26T11:49:21;8.50;;;5.77;;
11522;SDS011;70090;43.208;27.904;2023-06-26T11:51:51;8.17;;;5.37;;
11522;SDS011;70090;43.208;27.904;2023-06-26T11:54:29;9.70;;;5.20;;
11522;SDS011;70090;43.208;27.904;2023-06-26T11:56:57;8.70;;;6.13;;
11522;SDS011;70090;43.208;27.904;2023-06-26T11:59:31;7.07;;;5.10;;
11522;SDS011;70090;43.208;27.904;2023-06-26T12:01:59;5.50;;;5.00;;
11522;SDS011;70090;43.208;27.904;2023-06-26T12:04:28;9.90;;;8.03;;
11522;SDS011;70090;43.208;27.904;2023-06-26T12:06:55;9.77;;;8.77;;
11522;SDS011;70090;43.208;27.904;2023-06-26T12:09:23;10.37;;;8.90;;
11522;SDS011;70090;43.208;27.904;2023-06-26T12:11:51;10.87;;;9.77;;
11522;SDS011;70090;43.208;27.904;2023-06-26T12:14:20;13.50;;;9.27;;
11522;SDS011;70090;43.208;27.904;2023-06-26T12:16:48;15.10;;;9.97;;
11522;SDS011;70090;43.208;27.904;2023-06-26T12:19:15;10.03;;;9.03;;
11522;SDS011;70090;43.208;27.904;2023-06-26T12:21:47;14.70;;;11.03;;
11522;SDS011;70090;43.208;27.904;2023-06-26T12:24:18;12.73;;;9.53;;
11522;SDS011;70090;43.208;27.904;2023-06-26T12:26:46;11.97;;;10.77;;
11522;SDS011;70090;43.208;27.904;2023-06-26T12:29:16;11.70;;;9.07;;
11522;SDS011;70090;43.208;27.904;2023-06-26T12:31:45;12.50;;;9.70;;
11522;SDS011;70090;43.208;27.904;2023-06-26T12:34:13;13.23;;;9.20;;
11522;SDS011;70090;43.208;27.904;2023-06-26T12:36:43;12.57;;;9.57;;
11522;SDS011;70090;43.208;27.904;2023-06-26T12:39:14;13.67;;;10.07;;
11522;SDS011;70090;43.208;27.904;2023-06-26T12:41:45;11.23;;;8.90;;
11522;SDS011;70090;43.208;27.904;2023-06-26T12:44:17;14.20;;;9.87;;
11522;SDS011;70090;43.208;27.904;2023-06-26T12:46:45;11.43;;;9.47;;
11522;SDS011;70090;43.208;27.904;2023-06-26T12:49:13;11.60;;;10.50;;
11522;SDS011;70090;43.208;27.904;2023-06-26T12:51:39;11.07;;;9.97;;
11522;SDS011;70090;43.208;27.904;2023-06-26T12:54:08;10.13;;;9.00;;
11522;SDS011;70090;43.208;27.904;2023-06-26T12:56:36;10.23;;;8.80;;
11522;SDS011;70090;43.208;27.904;2023-06-26T12:59:03;14.80;;;13.27;;
11522;SDS011;70090;43.208;27.904;2023-06-26T13:01:30;13.30;;;10.03;;
11522;SDS011;70090;43.208;27.904;2023-06-26T13:03:57;11.37;;;10.27;;
11522;SDS011;70090;43.208;27.904;2023-06-26T13:06:24;11.70;;;9.80;;
11522;SDS011;70090;43.208;27.904;2023-06-26T13:08:51;12.37;;;10.13;;
11522;SDS011;70090;43.208;27.904;2023-06-26T13:11:18;11.03;;;9.37;;
11522;SDS011;70090;43.208;27.904;2023-06-26T13:13:47;13.67;;;12.37;;
11522;SDS011;70090;43.208;27.904;2023-06-26T13:16:14;11.33;;;8.97;;
11522;SDS011;70090;43.208;27.904;2023-06-26T13:18:43;9.83;;;8.93;;
11522;SDS011;70090;43.208;27.904;2023-06-26T13:21:10;10.50;;;9.40;;
11522;SDS011;70090;43.208;27.904;2023-06-26T13:23:37;10.13;;;9.13;;
11522;SDS011;70090;43.208;27.904;2023-06-26T13:26:04;9.70;;;8.80;;
11522;SDS011;70090;43.208;27.904;2023-06-26T13:28:31;12.60;;;9.07;;
11522;SDS011;70090;43.208;27.904;2023-06-26T13:30:59;10.27;;;8.53;;
11522;SDS011;70090;43.208;27.904;2023-06-26T13:33:26;10.13;;;8.70;;
11522;SDS011;70090;43.208;27.904;2023-06-26T13:35:53;9.17;;;7.93;;
11522;SDS011;70090;43.208;27.904;2023-06-26T13:38:20;10.27;;;8.50;;
11522;SDS011;70090;43.208;27.904;2023-06-26T13:40:49;12.03;;;7.90;;
11522;SDS011;70090;43.208;27.904;2023-06-26T13:43:17;8.83;;;7.90;;
11522;SDS011;70090;43.208;27.904;2023-06-26T13:45:44;9.87;;;8.80;;
11522;SDS011;70090;43.208;27.904;2023-06-26T13:48:12;9.03;;;7.87;;
11522;SDS011;70090;43.208;27.904;2023-06-26T13:50:39;10.17;;;8.20;;
11522;SDS011;70090;43.208;27.904;2023-06-26T13:53:06;9.20;;;7.33;;
11522;SDS011;70090;43.208;27.904;2023-06-26T13:55:33;8.27;;;7.07;;
11522;SDS011;70090;43.208;27.904;2023-06-26T13:58:03;9.47;;;7.40;;
11522;SDS011;70090;43.208;27.904;2023-06-26T14:00:30;8.90;;;8.00;;
11522;SDS011;70090;43.208;27.904;2023-06-26T14:02:58;11.50;;;7.80;;
11522;SDS011;70090;43.208;27.904;2023-06-26T14:05:27;8.60;;;7.80;;
11522;SDS011;70090;43.208;27.904;2023-06-26T14:07:54;8.97;;;8.10;;
11522;SDS011;70090;43.208;27.904;2023-06-26T14:10:21;8.73;;;7.83;;
11522;SDS011;70090;43.208;27.904;2023-06-26T14:12:48;8.20;;;7.40;;
11522;SDS011;70090;43.208;27.904;2023-06-26T14:15:15;8.33;;;7.37;;
11522;SDS011;70090;43.208;27.904;2023-06-26T14:17:42;8.90;;;8.00;;
11522;SDS011;70090;43.208;27.904;2023-06-26T14:20:09;7.80;;;7.07;;
11522;SDS011;70090;43.208;27.904;2023-06-26T14:22:39;8.03;;;7.27;;